createdAt,value
2022-08-12T00:01:11.727Z,102100.72
2022-08-12T00:03:57.245Z,102098.13
2022-08-12T00:06:43.882Z,102097.22
2022-08-12T00:09:29.721Z,102101.63
2022-08-12T00:12:15.514Z,102109.69
2022-08-12T00:15:04.052Z,102101.84
2022-08-12T00:17:50.005Z,102102.78
2022-08-12T00:20:35.377Z,102103.72
2022-08-12T00:23:21.357Z,102107.34
2022-08-12T00:26:21.402Z,102103.00
2022-08-12T00:29:09.541Z,102104.84
2022-08-12T00:31:55.345Z,102110.22
2022-08-12T00:34:40.873Z,102101.44
2022-08-12T00:37:27.758Z,102104.97
2022-08-12T00:40:14.461Z,102106.69
2022-08-12T00:42:42.586Z,102096.97
2022-08-12T00:45:11.645Z,102103.09
2022-08-12T00:47:39.619Z,102098.69
2022-08-12T00:50:07.883Z,102101.31
2022-08-12T00:52:36.150Z,102104.81
2022-08-12T00:55:05.420Z,102104.81
2022-08-12T00:57:37.396Z,102105.72
2022-08-12T01:00:21.798Z,102102.19
2022-08-12T01:02:57.512Z,102104.91
2022-08-12T01:05:44.459Z,102099.66
2022-08-12T01:08:30.286Z,102101.44
2022-08-12T01:11:16.087Z,102103.16
2022-08-12T01:13:50.496Z,102095.25
2022-08-12T01:16:22.623Z,102093.50
2022-08-12T01:18:55.081Z,102105.81
2022-08-12T01:21:27.428Z,102099.63
2022-08-12T01:24:52.119Z,102101.41
2022-08-12T01:27:20.085Z,102090.00
2022-08-12T01:29:49.310Z,102099.66
2022-08-12T01:32:19.229Z,102091.75
2022-08-12T01:35:12.423Z,102095.28
2022-08-12T01:38:06.269Z,102098.84
2022-08-12T01:40:40.427Z,102092.72
2022-08-12T01:43:21.204Z,102091.81
2022-08-12T01:46:07.773Z,102085.69
2022-08-12T01:49:02.950Z,102086.56
2022-08-12T01:52:15.994Z,102083.03
2022-08-12T01:54:42.059Z,102083.91
2022-08-12T01:57:10.897Z,102075.13
2022-08-12T01:59:46.893Z,102079.53
2022-08-12T02:02:36.871Z,102077.75
2022-08-12T02:05:40.897Z,102074.25
2022-08-12T02:09:01.644Z,102071.66
2022-08-12T02:11:34.755Z,102070.81
2022-08-12T02:14:37.329Z,102063.78
2022-08-12T02:17:55.478Z,102068.19
2022-08-12T02:20:51.919Z,102065.56
2022-08-12T02:23:26.903Z,102059.47
2022-08-12T02:25:59.572Z,102064.72
2022-08-12T02:28:27.938Z,102065.63
2022-08-12T02:30:57.281Z,102066.50
2022-08-12T02:33:25.402Z,102066.50
2022-08-12T02:35:52.933Z,102070.03
2022-08-12T02:38:21.804Z,102076.19
2022-08-12T02:40:54.863Z,102073.56
2022-08-12T02:43:46.461Z,102064.81
2022-08-12T02:46:16.290Z,102063.94
2022-08-12T02:49:31.308Z,102065.75
2022-08-12T02:52:00.249Z,102070.09
2022-08-12T02:54:27.727Z,102063.97
2022-08-12T02:56:55.352Z,102067.50
2022-08-12T02:59:25.038Z,102075.41
2022-08-12T03:01:55.131Z,102072.81
2022-08-12T03:04:53.907Z,102069.28
2022-08-12T03:07:55.752Z,102074.59
2022-08-12T03:10:36.531Z,102069.31
2022-08-12T03:13:07.286Z,102071.09
2022-08-12T03:15:35.787Z,102082.50
2022-08-12T03:18:26.418Z,102071.09
2022-08-12T03:20:57.088Z,102072.88
2022-08-12T03:23:30.143Z,102071.16
2022-08-12T03:26:01.829Z,102082.59
2022-08-12T03:28:51.245Z,102076.50
2022-08-12T03:31:25.704Z,102069.50
2022-08-12T03:34:02.198Z,102063.38
2022-08-12T03:36:36.028Z,102066.91
2022-08-12T03:39:16.559Z,102080.03
2022-08-12T03:42:22.502Z,102076.53
2022-08-12T03:45:42.069Z,102085.31
2022-08-12T03:48:38.713Z,102073.03
2022-08-12T03:51:24.959Z,102089.69
2022-08-12T03:54:11.745Z,102093.22
2022-08-12T03:56:58.758Z,102085.34
2022-08-12T03:59:44.077Z,102077.44
2022-08-12T04:02:15.517Z,102090.59
2022-08-12T04:04:45.261Z,102085.31
2022-08-12T04:07:14.052Z,102096.72
2022-08-12T04:09:44.462Z,102094.09
2022-08-12T04:12:32.881Z,102087.88
2022-08-12T04:15:01.826Z,102098.41
2022-08-12T04:17:29.123Z,102094.84
2022-08-12T04:19:57.917Z,102096.56
2022-08-12T04:22:29.674Z,102089.53
2022-08-12T04:25:01.233Z,102092.16
2022-08-12T04:27:31.478Z,102090.41
2022-08-12T04:30:17.042Z,102092.16
2022-08-12T04:32:49.943Z,102092.16
2022-08-12T04:35:17.189Z,102089.53
2022-08-12T04:37:58.486Z,102099.19
2022-08-12T04:40:31.187Z,102095.69
2022-08-12T04:43:01.233Z,102106.22
2022-08-12T04:45:29.154Z,102103.59
2022-08-12T04:47:56.822Z,102106.25
2022-08-12T04:50:35.353Z,102100.09
2022-08-12T04:53:08.974Z,102101.81
2022-08-12T04:55:38.833Z,102100.06
2022-08-12T04:58:10.093Z,102095.69
2022-08-12T05:00:38.162Z,102106.22
2022-08-12T05:03:07.422Z,102111.47
2022-08-12T05:05:37.821Z,102107.09
2022-08-12T05:08:11.287Z,102101.88
2022-08-12T05:10:38.178Z,102099.22
2022-08-12T05:13:09.521Z,102104.50
2022-08-12T05:16:05.179Z,102107.09
2022-08-12T05:18:25.750Z,102107.09
2022-08-12T05:20:58.759Z,102110.63
2022-08-12T05:23:25.658Z,102100.94
2022-08-12T05:25:56.390Z,102104.44
2022-08-12T05:28:26.848Z,102105.31
2022-08-12T05:30:55.067Z,102109.66
2022-08-12T05:33:26.469Z,102107.00
2022-08-12T05:35:53.426Z,102108.72
2022-08-12T05:38:39.326Z,102113.09
2022-08-12T05:41:19.111Z,102101.66
2022-08-12T05:43:48.371Z,102104.25
2022-08-12T05:46:19.131Z,102113.00
2022-08-12T05:48:46.570Z,102116.50
2022-08-12T05:51:13.658Z,102116.50
2022-08-12T05:53:41.602Z,102117.34
2022-08-12T05:56:24.831Z,102114.72
2022-08-12T05:58:53.606Z,102118.19
2022-08-12T06:02:09.424Z,102119.06
2022-08-12T06:04:09.461Z,102125.19
2022-08-12T06:06:39.784Z,102112.81
2022-08-12T06:09:09.998Z,102115.41
2022-08-12T06:11:38.073Z,102124.16
2022-08-12T06:14:11.682Z,102124.97
2022-08-12T06:16:39.204Z,102122.28
2022-08-12T06:19:08.137Z,102122.22
2022-08-12T06:21:37.632Z,102133.56
2022-08-12T06:24:06.109Z,102119.41
2022-08-12T06:26:34.488Z,102119.31
2022-08-12T06:29:01.608Z,102118.34
2022-08-12T06:31:28.514Z,102121.78
2022-08-12T06:34:00.895Z,102122.56
2022-08-12T06:36:42.956Z,102116.34
2022-08-12T06:39:14.836Z,102123.25
2022-08-12T06:42:30.680Z,102117.81
2022-08-12T06:44:50.339Z,102114.16
2022-08-12T06:47:18.551Z,102113.16
2022-08-12T06:49:45.460Z,102098.88
2022-08-12T06:52:12.364Z,102106.66
2022-08-12T06:54:41.359Z,102115.31
2022-08-12T06:58:06.070Z,102111.56
2022-08-12T06:59:55.781Z,102115.75
2022-08-12T07:02:22.821Z,102122.63
2022-08-12T07:04:50.024Z,102110.09
2022-08-12T07:07:18.552Z,102118.59
2022-08-12T07:10:06.982Z,102106.06
2022-08-12T07:12:32.492Z,102106.63
2022-08-12T07:15:01.708Z,102109.91
2022-08-12T07:17:35.652Z,102104.44
2022-08-12T07:20:11.653Z,102109.41
2022-08-12T07:22:58.242Z,102104.75
2022-08-12T07:25:37.457Z,102108.88
2022-08-12T07:28:16.434Z,102111.31
2022-08-12T07:30:45.834Z,102106.63
2022-08-12T07:33:13.547Z,102104.63
2022-08-12T07:35:45.433Z,102111.47
2022-08-12T07:38:33.435Z,102112.06
2022-08-12T07:41:15.424Z,102118.03
2022-08-12T07:43:53.820Z,102109.78
2022-08-12T07:46:28.958Z,102118.28
2022-08-12T07:48:59.562Z,102111.72
2022-08-12T07:51:27.540Z,102118.47
2022-08-12T07:54:00.986Z,102111.13
2022-08-12T07:56:31.613Z,102115.25
2022-08-12T07:58:59.238Z,102111.47
2022-08-12T08:01:26.994Z,102114.78
2022-08-12T08:04:18.417Z,102109.13
2022-08-12T08:06:46.802Z,102112.38
2022-08-12T08:09:16.171Z,102112.03
2022-08-12T08:12:01.675Z,102114.28
2022-08-12T08:14:29.329Z,102119.19
2022-08-12T08:16:59.783Z,102116.91
2022-08-12T08:19:29.109Z,102109.28
2022-08-12T08:21:58.705Z,102108.00
2022-08-12T08:24:28.051Z,102108.38
2022-08-12T08:26:58.404Z,102115.00
2022-08-12T08:29:25.819Z,102104.75
2022-08-12T08:31:58.652Z,102099.88
2022-08-12T08:34:53.720Z,102101.25
2022-08-12T08:37:20.692Z,102097.97
2022-08-12T08:39:47.665Z,102095.69
2022-08-12T08:42:33.134Z,102096.00
2022-08-12T08:45:01.304Z,102097.38
2022-08-12T08:47:28.226Z,102102.22
2022-08-12T08:50:00.935Z,102098.25
2022-08-12T08:52:39.374Z,102096.09
2022-08-12T08:55:15.434Z,102092.25
2022-08-12T08:57:49.405Z,102084.75
2022-08-12T09:00:19.712Z,102083.44
2022-08-12T09:02:49.329Z,102082.00
2022-08-12T09:05:26.399Z,102076.28
2022-08-12T09:08:08.771Z,102074.03
2022-08-12T09:10:44.863Z,102075.53
2022-08-12T09:13:29.418Z,102067.97
2022-08-12T09:16:16.924Z,102066.50
2022-08-12T09:18:48.324Z,102068.06
2022-08-12T09:21:23.230Z,102070.44
2022-08-12T09:24:01.255Z,102064.84
2022-08-12T09:26:38.101Z,102063.59
2022-08-12T09:29:15.313Z,102072.88
2022-08-12T09:32:04.293Z,102068.84
2022-08-12T09:34:33.845Z,102066.56
2022-08-12T09:37:18.925Z,102061.78
2022-08-12T09:40:04.171Z,102063.00
2022-08-12T09:43:15.087Z,102064.13
2022-08-12T09:46:11.004Z,102069.91
2022-08-12T09:48:35.093Z,102066.75
2022-08-12T09:51:16.765Z,102072.44
2022-08-12T09:53:50.704Z,102056.78
2022-08-12T09:56:59.368Z,102061.69
2022-08-12T10:00:12.928Z,102057.66
2022-08-12T10:02:44.740Z,102046.38
2022-08-12T10:05:00.468Z,102045.94
2022-08-12T10:07:40.620Z,102037.66
2022-08-12T10:10:22.783Z,102042.53
2022-08-12T10:13:13.586Z,102040.47
2022-08-12T10:16:01.482Z,102045.50
2022-08-12T10:18:32.720Z,102038.94
2022-08-12T10:21:10.476Z,102029.94
2022-08-12T10:23:40.780Z,102033.00
2022-08-12T10:26:39.003Z,102043.94
2022-08-12T10:30:38.360Z,102036.34
2022-08-12T10:32:56.329Z,102043.00
2022-08-12T10:35:09.369Z,102034.97
2022-08-12T10:38:33.437Z,102037.16
2022-08-12T10:40:28.589Z,102033.16
2022-08-12T10:43:17.118Z,102024.94
2022-08-12T10:45:46.056Z,102034.63
2022-08-12T10:48:21.088Z,102031.69
2022-08-12T10:51:01.778Z,102036.03
2022-08-12T10:53:45.684Z,102027.69
2022-08-12T10:56:17.909Z,102020.50
2022-08-12T10:58:47.178Z,102021.22
2022-08-12T11:01:49.912Z,102017.50
2022-08-12T11:04:27.576Z,102017.22
2022-08-12T11:07:09.655Z,102016.03
2022-08-12T11:10:00.816Z,102004.13
2022-08-12T11:12:54.740Z,102007.31
2022-08-12T11:15:33.031Z,102015.13
2022-08-12T11:18:12.029Z,102011.19
2022-08-12T11:20:45.117Z,102007.38
2022-08-12T11:23:25.049Z,102013.34
2022-08-12T11:26:05.047Z,102000.00
2022-08-12T11:28:37.110Z,101998.94
2022-08-12T11:31:07.121Z,102004.81
2022-08-12T11:34:05.858Z,101993.88
2022-08-12T11:36:26.160Z,101989.91
2022-08-12T11:38:54.505Z,101985.97
2022-08-12T11:41:31.497Z,101992.00
2022-08-12T11:44:30.778Z,101985.00
2022-08-12T11:46:50.881Z,101986.03
2022-08-12T11:49:20.495Z,101972.59
2022-08-12T11:52:01.780Z,101973.66
2022-08-12T11:54:29.873Z,101963.94
2022-08-12T11:57:02.492Z,101976.47
2022-08-12T12:02:20.431Z,101965.50
2022-08-12T12:04:52.921Z,101953.69
2022-08-12T12:08:36.683Z,101963.97
2022-08-12T12:10:16.899Z,101962.66
2022-08-12T12:12:50.157Z,101959.69
2022-08-12T12:15:24.837Z,101955.81
2022-08-12T12:17:55.780Z,101952.25
2022-08-12T12:20:26.050Z,101949.50
2022-08-12T12:22:54.750Z,101951.19
2022-08-12T12:25:21.690Z,101949.56
2022-08-12T12:28:08.579Z,101955.06
2022-08-12T12:30:55.467Z,101948.72
2022-08-12T12:33:22.410Z,101949.50
2022-08-12T12:36:06.397Z,101940.16
2022-08-12T12:38:36.270Z,101941.72
2022-08-12T12:41:14.638Z,101943.22
2022-08-12T12:43:56.571Z,101933.25
2022-08-12T12:46:30.934Z,101939.34
2022-08-12T12:48:57.847Z,101940.84
2022-08-12T12:52:13.876Z,101937.94
2022-08-12T12:54:12.520Z,101932.09
2022-08-12T12:56:42.816Z,101930.84
2022-08-12T12:59:55.474Z,101933.25
2022-08-12T13:02:08.093Z,101939.19
2022-08-12T13:04:37.357Z,101926.47
2022-08-12T13:07:05.947Z,101928.50
2022-08-12T13:09:36.412Z,101927.34
2022-08-12T13:12:08.795Z,101930.91
2022-08-12T13:14:39.928Z,101928.97
2022-08-12T13:17:11.237Z,101924.53
2022-08-12T13:19:45.341Z,101921.84
2022-08-12T13:22:19.647Z,101919.06
2022-08-12T13:24:55.994Z,101910.69
2022-08-12T13:27:46.208Z,101905.09
2022-08-12T13:30:23.779Z,101914.53
2022-08-12T13:33:00.426Z,101930.56
2022-08-12T13:36:05.931Z,101911.84
2022-08-12T13:38:41.164Z,101918.00
2022-08-12T13:41:31.281Z,101917.66
2022-08-12T13:44:04.404Z,101924.59
2022-08-12T13:46:31.930Z,101909.84
2022-08-12T13:48:58.829Z,101915.91
2022-08-12T13:51:26.063Z,101915.69
2022-08-12T13:54:11.547Z,101903.75
2022-08-12T13:56:38.999Z,101909.78
2022-08-12T13:59:09.434Z,101907.84
2022-08-12T14:01:40.679Z,101905.16
2022-08-12T14:04:11.590Z,101902.34
2022-08-12T14:06:40.440Z,101906.00
2022-08-12T14:09:17.365Z,101901.78
2022-08-12T14:11:59.163Z,101898.38
2022-08-12T14:14:31.106Z,101891.13
2022-08-12T14:17:02.342Z,101894.59
2022-08-12T14:19:35.803Z,101882.94
2022-08-12T14:22:06.713Z,101896.41
2022-08-12T14:24:40.835Z,101900.72
2022-08-12T14:27:10.134Z,101887.25
2022-08-12T14:30:05.165Z,101881.66
2022-08-12T14:32:34.251Z,101885.88
2022-08-12T14:35:01.267Z,101884.06
2022-08-12T14:37:55.538Z,101880.69
2022-08-12T14:40:18.259Z,101875.00
2022-08-12T14:42:46.966Z,101872.75
2022-08-12T14:45:14.140Z,101881.41
2022-08-12T14:47:53.589Z,101872.97
2022-08-12T14:50:37.455Z,101872.66
2022-08-12T14:54:55.959Z,101872.34
2022-08-12T14:59:23.197Z,101857.38
2022-08-12T15:01:51.102Z,101860.81
2022-08-12T15:04:28.580Z,101854.47
2022-08-12T15:06:56.407Z,101856.41
2022-08-12T15:09:29.321Z,101851.97
2022-08-12T15:12:03.193Z,101850.00
2022-08-12T15:14:30.693Z,101842.47
2022-08-12T15:17:00.037Z,101847.97
2022-08-12T15:20:31.328Z,101850.00
2022-08-12T15:22:39.458Z,101843.44
2022-08-12T15:25:07.700Z,101840.31
2022-08-12T15:28:04.482Z,101827.38
2022-08-12T15:30:31.067Z,101843.78
2022-08-12T15:32:59.044Z,101835.88
2022-08-12T15:35:31.115Z,101827.56
2022-08-12T15:38:11.416Z,101825.50
2022-08-12T15:40:46.843Z,101825.59
2022-08-12T15:43:51.381Z,101830.31
2022-08-12T15:46:06.155Z,101820.09
2022-08-12T15:48:33.347Z,101828.50
2022-08-12T15:51:05.327Z,101818.47
2022-08-12T15:53:54.667Z,101822.47
2022-08-12T15:56:29.052Z,101815.47
2022-08-12T15:58:58.934Z,101821.16
2022-08-12T16:01:35.239Z,101828.06
2022-08-12T16:04:05.369Z,101820.59
2022-08-12T16:09:45.302Z,101831.59
2022-08-12T16:12:11.210Z,101826.91
2022-08-12T16:14:39.704Z,101832.91
2022-08-12T16:17:09.126Z,101835.78
2022-08-12T16:20:03.636Z,101833.00
2022-08-12T16:22:29.810Z,101835.72
2022-08-12T16:24:57.097Z,101836.22
2022-08-12T16:27:25.447Z,101834.66
2022-08-12T16:29:57.229Z,101837.47
2022-08-12T16:32:31.660Z,101840.25
2022-08-12T16:34:59.918Z,101836.78
2022-08-12T16:37:32.487Z,101832.59
2022-08-12T16:40:06.319Z,101841.03
2022-08-12T16:42:39.454Z,101833.81
2022-08-12T16:45:15.204Z,101839.19
2022-08-12T16:47:58.533Z,101837.41
2022-08-12T16:50:30.861Z,101834.59
2022-08-12T16:53:02.481Z,101840.44
2022-08-12T16:55:41.957Z,101849.94
2022-08-12T16:58:28.044Z,101847.75
2022-08-12T17:01:02.109Z,101840.44
2022-08-12T17:03:32.587Z,101837.75
2022-08-12T17:06:06.407Z,101842.25
2022-08-12T17:08:33.877Z,101842.44
2022-08-12T17:11:00.795Z,101845.34
2022-08-12T17:13:29.154Z,101838.25
2022-08-12T17:16:06.394Z,101846.00
2022-08-12T17:18:45.500Z,101838.91
2022-08-12T17:21:40.569Z,101836.78
2022-08-12T17:24:16.403Z,101828.63
2022-08-12T17:26:49.181Z,101821.72
2022-08-12T17:29:24.027Z,101826.41
2022-08-12T17:32:08.874Z,101820.66
2022-08-12T17:34:55.161Z,101823.16
2022-08-12T17:37:22.162Z,101828.47
2022-08-12T17:40:12.667Z,101826.50
2022-08-12T17:42:38.413Z,101832.50
2022-08-12T17:45:17.030Z,101831.34
2022-08-12T17:48:01.131Z,101825.91
2022-08-12T17:50:36.853Z,101839.88
2022-08-12T17:53:08.174Z,101838.66
2022-08-12T17:55:47.417Z,101841.25
2022-08-12T17:58:35.571Z,101838.41
2022-08-12T18:01:11.024Z,101839.25
2022-08-12T18:04:05.449Z,101843.44
2022-08-12T18:06:27.856Z,101847.75
2022-08-12T18:08:58.855Z,101845.84
2022-08-12T18:12:04.383Z,101841.97
2022-08-12T18:14:33.048Z,101842.53
2022-08-12T18:17:08.183Z,101846.00
2022-08-12T18:20:06.244Z,101839.31
2022-08-12T18:22:31.760Z,101839.41
2022-08-12T18:25:06.837Z,101848.69
2022-08-12T18:28:15.721Z,101849.03
2022-08-12T18:30:45.292Z,101849.56
2022-08-12T18:33:23.766Z,101854.53
2022-08-12T18:35:53.695Z,101852.34
2022-08-12T18:38:25.119Z,101859.69
2022-08-12T18:41:20.717Z,101855.56
2022-08-12T18:43:59.852Z,101864.97
2022-08-12T18:46:54.284Z,101864.34
2022-08-12T18:49:38.042Z,101865.59
2022-08-12T18:52:08.000Z,101859.59
2022-08-12T18:54:49.323Z,101852.66
2022-08-12T18:58:05.843Z,101866.25
2022-08-12T19:00:21.526Z,101864.00
2022-08-12T19:02:51.875Z,101868.78
2022-08-12T19:05:20.768Z,101864.69
2022-08-12T19:08:00.745Z,101858.75
2022-08-12T19:10:31.114Z,101870.44
2022-08-12T19:13:23.048Z,101873.00
2022-08-12T19:15:57.935Z,101871.19
2022-08-12T19:18:30.166Z,101870.34
2022-08-12T19:21:06.537Z,101875.53
2022-08-12T19:23:39.548Z,101862.31
2022-08-12T19:26:12.198Z,101869.38
2022-08-12T19:28:39.626Z,101876.69
2022-08-12T19:31:56.063Z,101867.06
2022-08-12T19:38:04.271Z,101864.63
2022-08-12T19:40:32.293Z,101862.44
2022-08-12T19:43:19.945Z,101866.38
2022-08-12T19:45:54.315Z,101866.59
2022-08-12T19:48:30.308Z,101867.59
2022-08-12T19:50:57.887Z,101860.50
2022-08-12T19:53:27.670Z,101867.63
2022-08-12T19:55:57.417Z,101853.56
2022-08-12T19:58:25.356Z,101860.78
2022-08-12T20:00:54.964Z,101875.25
2022-08-12T20:03:39.380Z,101869.31
2022-08-12T20:06:15.631Z,101870.56
2022-08-12T20:08:55.886Z,101870.81
2022-08-12T20:12:14.724Z,101869.34
2022-08-12T20:14:19.032Z,101875.00
2022-08-12T20:16:54.466Z,101875.09
2022-08-12T20:20:16.338Z,101878.84
2022-08-12T20:22:24.531Z,101873.53
2022-08-12T20:24:58.378Z,101879.00
2022-08-12T20:28:03.317Z,101880.91
2022-08-12T20:30:20.239Z,101874.84
2022-08-12T20:32:58.623Z,101877.72
2022-08-12T20:36:06.046Z,101875.25
2022-08-12T20:38:26.198Z,101877.13
2022-08-12T20:40:55.802Z,101879.06
2022-08-12T20:43:24.336Z,101883.63
2022-08-12T20:45:57.174Z,101879.53
2022-08-12T20:48:26.210Z,101877.75
2022-08-12T20:50:57.595Z,101869.16
2022-08-12T20:53:26.549Z,101879.97
2022-08-12T20:56:00.428Z,101883.59
2022-08-12T20:58:28.508Z,101885.50
2022-08-12T21:00:59.215Z,101882.22
2022-08-12T21:03:52.719Z,101880.63
2022-08-12T21:06:43.974Z,101885.28
2022-08-12T21:09:10.955Z,101885.56
2022-08-12T21:11:37.890Z,101883.97
2022-08-12T21:14:05.994Z,101885.06
2022-08-12T21:16:39.078Z,101884.31
2022-08-12T21:19:08.176Z,101887.06
2022-08-12T21:21:50.177Z,101884.53
2022-08-12T21:24:17.793Z,101884.75
2022-08-12T21:26:53.651Z,101889.38
2022-08-12T21:29:21.906Z,101880.59
2022-08-12T21:32:40.817Z,101884.41
2022-08-12T21:34:36.505Z,101877.72
2022-08-12T21:37:26.968Z,101885.81
2022-08-12T21:39:56.402Z,101886.91
2022-08-12T21:42:27.804Z,101888.75
2022-08-12T21:45:48.078Z,101887.06
2022-08-12T21:47:41.940Z,101883.59
2022-08-12T21:50:09.227Z,101882.75
2022-08-12T21:52:48.858Z,101882.84
2022-08-12T21:55:17.991Z,101892.66
2022-08-12T21:57:54.046Z,101887.50
2022-08-12T22:00:33.369Z,101892.06
2022-08-12T22:04:03.466Z,101902.84
2022-08-12T22:06:31.048Z,101899.50
2022-08-12T22:09:16.670Z,101890.00
2022-08-12T22:11:56.253Z,101904.25
2022-08-12T22:14:24.263Z,101900.91
2022-08-12T22:16:54.294Z,101898.50
2022-08-12T22:19:22.702Z,101903.03
2022-08-12T22:21:54.937Z,101903.06
2022-08-12T22:24:26.997Z,101903.19
2022-08-12T22:27:31.596Z,101891.09
2022-08-12T22:30:21.660Z,101901.72
2022-08-12T22:32:50.556Z,101899.19
2022-08-12T22:35:56.131Z,101894.00
2022-08-12T22:38:25.443Z,101895.09
2022-08-12T22:40:58.424Z,101889.03
2022-08-12T22:43:59.258Z,101887.34
2022-08-12T22:46:33.295Z,101892.88
2022-08-12T22:49:01.090Z,101883.22
2022-08-12T22:51:57.584Z,101883.34
2022-08-12T22:54:36.203Z,101881.66
2022-08-12T22:57:05.560Z,101884.50
2022-08-12T22:59:51.273Z,101880.19
2022-08-12T23:02:30.703Z,101876.75
2022-08-12T23:04:58.392Z,101879.47
2022-08-12T23:07:25.326Z,101878.66
2022-08-12T23:09:52.432Z,101876.09
2022-08-12T23:12:41.114Z,101878.09
2022-08-12T23:15:14.434Z,101874.53
2022-08-12T23:17:41.883Z,101873.75
2022-08-12T23:20:11.311Z,101880.94
2022-08-12T23:22:40.001Z,101869.59
2022-08-12T23:25:19.061Z,101869.72
2022-08-12T23:28:29.947Z,101876.00
2022-08-12T23:31:04.073Z,101876.09
2022-08-12T23:34:01.493Z,101879.78
2022-08-12T23:36:39.058Z,101878.13
2022-08-12T23:40:08.331Z,101869.34
2022-08-12T23:42:16.452Z,101868.53
2022-08-12T23:44:43.920Z,101870.34
2022-08-12T23:47:12.622Z,101862.50
2022-08-12T23:49:58.128Z,101859.03
2022-08-12T23:52:27.682Z,101859.06
2022-08-12T23:55:23.951Z,101857.38
2022-08-12T23:58:17.839Z,101861.91
